Flight Number: EUR1060 Duration: 7:00
Departure: Dubai Int'l (OMDB) at 04:30 Distance: 2959 Nm
Arrival: Gatwick Airport (EGKK) at 11:30 Equipment: B777

Weather Information
Dubai International Airport, United Arab Emirates (OMDB) 25-15N 055-20E 5M Jan 22, 2018 - 03:00 AM EST / 2018.01.22 0800 UTC
Wind: from the ENE (060 degrees) at 5 MPH (4 KT) (direction variable):0
Visibility: 3 mile(s):0 Temperature: 73 F (23 C) Dew Point: 41 F (5 C) Relative Humidity: 31% Pressure (altimeter): 30.06 in. Hg (1018 hPa)
ob: OMDB 220800Z 06004KT 360V110 6000 NSC 23/05 Q1018 NOSIG cycle: 8
Sunrise: 03:07 Sunset: 13:52 (UTC)

London / Gatwick Airport, United Kingdom (EGKK) 51-09N 000-11W 0M Jan 22, 2018 - 02:50 AM EST / 2018.01.22 0750 UTC
Wind: from the WNW (290 degrees) at 6 MPH (5 KT):0
Visibility: 5 mile(s):0
Sky conditions: mostly clear Weather: light rain Temperature: 46 F (8 C) Dew Point: 44 F (7 C) Relative Humidity: 93% Pressure (altimeter): 29.77 in. Hg (1008 hPa)
ob: EGKK 220750Z 29005KT 9000 -RA FEW027 08/07 Q1008 cycle: 8
Sunrise: 07:54 Sunset: 16:30 (UTC)

TAF:2018/01/22 06:15 TAF EGKK 220509Z 2206/2312 26012KT 9999 SCT030 PROB30 TEMPO 2206/2210 8000 -RA BKN014 BECMG 2221/2224 20008KT PROB30 TEMPO 2303/2305 BKN008 BECMG 2305/2308 6000 -RA BKN008 TEMPO 2307/2312 22015G25KT 3000 RADZ BKN004

Previous Pireps for this route
Date Aircraft Flight time Fuel used Landing rate On time
2013-01-17B7777.141104940No
2013-02-02B7776.551106000Yes
2013-10-17B7778.231792230No
2013-12-26B77707.2487977-362No
2014-05-25B77708.1784347-388No
2014-09-20B7777.541220890Yes
2014-11-28B77707.0779217-342No
2015-05-23B74709.02166683-115Charter
2015-10-13B737645211-645Charter
2016-04-25B7778.151130No
2016-05-28B7776.541330000No
(pireps marked green are flown by you)

Route map